Dades meteomassalio
Diari Summary for Febrer 7, 2017 Units:  Metric    English   Both
« Previous Day
Next Day »
Diari Semanal Mensual Anual Personalitzat
  Maxima: Minima: Mijana:
Temperatura: 16.5 °C 8.3 °C 12.4 °C
Rosada: 9.7 °C 5.4 °C 7.5 °C
Humitat: 88 % 63 % 73 %
Velocitat del vent: 51.8 km/h 0.0 km/h 26.3 km/h
Racha vent: 51.8 km/h - -
Vent:- - WNW
Pressio: 1021.9 hPa 1018.5 hPa -
Pluja: 2.3 mm    
Historical Graphs
 
 
Tabular Data for Febrer 7, 2017
Time Temperature Dew Point Pressure Wind Wind Speed Wind Gust Humidity Rainfall Rate (Hourly) solar Conditions
00:00 13.3 °C 7.3 °C 1021.9 hPa WNW 22.2 km/h 22.2 km/h 67 % 0.0 mm 0.0 W/m2 CLR
00:05 13.4 °C 7.4 °C 1021.9 hPa WNW 24.1 km/h 24.1 km/h 67 % 0.0 mm 0.0 W/m2 CLR
00:10 13.3 °C 7.3 °C 1021.9 hPa WNW 31.5 km/h 31.5 km/h 67 % 0.0 mm 0.0 W/m2 CLR
00:15 13.3 °C 7.3 °C 1021.6 hPa WNW 29.6 km/h 29.6 km/h 67 % 0.0 mm 0.0 W/m2 CLR
00:20 13.3 °C 7.5 °C 1021.9 hPa WNW 42.6 km/h 42.6 km/h 68 % 0.0 mm 0.0 W/m2 CLR
00:25 13.3 °C 7.3 °C 1021.9 hPa WNW 31.5 km/h 31.5 km/h 67 % 0.0 mm 0.0 W/m2 CLR
00:30 13.2 °C 7.4 °C 1021.6 hPa WNW 31.5 km/h 31.5 km/h 68 % 0.0 mm 0.0 W/m2 CLR
00:35 13.1 °C 7.3 °C 1021.6 hPa WNW 33.3 km/h 33.3 km/h 68 % 0.0 mm 0.0 W/m2 CLR
00:40 13.2 °C 7.4 °C 1021.6 hPa WNW 37.0 km/h 37.0 km/h 68 % 0.0 mm 0.0 W/m2 CLR
00:45 13.1 °C 7.3 °C 1021.6 hPa WNW 31.5 km/h 31.5 km/h 68 % 0.0 mm 0.0 W/m2 CLR
00:50 13.2 °C 7.2 °C 1021.6 hPa WNW 40.7 km/h 40.7 km/h 67 % 0.0 mm 0.0 W/m2 CLR
00:55 13.1 °C 7.3 °C 1021.6 hPa WNW 35.2 km/h 35.2 km/h 68 % 0.0 mm 0.0 W/m2 CLR
01:00 13.1 °C 7.1 °C 1021.6 hPa WNW 31.5 km/h 31.5 km/h 67 % 0.0 mm 0.0 W/m2 CLR
01:05 12.9 °C 7.2 °C 1021.6 hPa WNW 29.6 km/h 29.6 km/h 68 % 0.0 mm 0.0 W/m2 CLR
01:10 12.9 °C 7.2 °C 1021.6 hPa WNW 31.5 km/h 31.5 km/h 68 % 0.0 mm 0.0 W/m2 CLR
01:15 12.8 °C 7.1 °C 1021.6 hPa WNW 29.6 km/h 29.6 km/h 68 % 0.0 mm 0.0 W/m2 CLR
01:20 12.8 °C 7.1 °C 1021.6 hPa WNW 32.2 km/h 32.2 km/h 68 % 0.0 mm 0.0 W/m2 CLR
01:25 12.9 °C 6.9 °C 1021.6 hPa WNW 33.3 km/h 33.3 km/h 67 % 0.0 mm 0.0 W/m2 CLR
01:30 12.9 °C 6.9 °C 1021.6 hPa WNW 33.3 km/h 33.3 km/h 67 % 0.0 mm 0.0 W/m2 CLR
01:35 12.8 °C 6.8 °C 1021.6 hPa WNW 31.5 km/h 31.5 km/h 67 % 0.0 mm 0.0 W/m2 CLR
01:40 12.6 °C 6.8 °C 1021.6 hPa WNW 31.5 km/h 31.5 km/h 68 % 0.0 mm 0.0 W/m2 CLR
01:45 12.6 °C 6.8 °C 1021.6 hPa WNW 33.8 km/h 33.8 km/h 68 % 0.0 mm 0.0 W/m2 CLR
01:50 12.7 °C 6.7 °C 1021.6 hPa WNW 31.5 km/h 31.5 km/h 67 % 0.0 mm 0.0 W/m2 CLR
01:55 12.8 °C 6.8 °C 1021.6 hPa WNW 31.5 km/h 31.5 km/h 67 % 0.0 mm 0.0 W/m2 CLR
02:00 12.8 °C 6.8 °C 1021.6 hPa WNW 27.8 km/h 27.8 km/h 67 % 0.0 mm 0.0 W/m2 CLR
02:05 12.7 °C 6.7 °C 1021.6 hPa WNW 27.8 km/h 27.8 km/h 67 % 0.0 mm 0.0 W/m2 CLR
02:10 12.7 °C 6.7 °C 1021.6 hPa WNW 31.5 km/h 31.5 km/h 67 % 0.0 mm 0.0 W/m2 CLR
02:15 12.8 °C 6.6 °C 1021.6 hPa WNW 37.0 km/h 37.0 km/h 66 % 0.0 mm 0.0 W/m2 CLR
02:20 12.8 °C 6.6 °C 1021.6 hPa WNW 42.6 km/h 42.6 km/h 66 % 0.0 mm 0.0 W/m2 CLR
02:25 12.8 °C 6.4 °C 1021.6 hPa WNW 33.3 km/h 33.3 km/h 65 % 0.0 mm 0.0 W/m2 CLR
02:30 12.8 °C 6.6 °C 1021.6 hPa WNW 38.9 km/h 38.9 km/h 66 % 0.0 mm 0.0 W/m2 CLR
02:35 12.7 °C 6.5 °C 1021.6 hPa WNW 35.4 km/h 35.4 km/h 66 % 0.0 mm 0.0 W/m2 CLR
02:40 12.7 °C 6.5 °C 1021.6 hPa WNW 29.6 km/h 29.6 km/h 66 % 0.0 mm 0.0 W/m2 CLR
02:45 12.8 °C 6.4 °C 1021.6 hPa WNW 35.2 km/h 35.2 km/h 65 % 0.0 mm 0.0 W/m2 CLR
02:50 12.9 °C 6.3 °C 1021.6 hPa WNW 35.2 km/h 35.2 km/h 64 % 0.0 mm 0.0 W/m2 CLR
02:55 12.7 °C 6.3 °C 1021.6 hPa WNW 29.6 km/h 29.6 km/h 65 % 0.0 mm 0.0 W/m2 CLR
03:00 12.7 °C 6.3 °C 1021.6 hPa WNW 25.9 km/h 25.9 km/h 65 % 0.0 mm 0.0 W/m2 CLR
03:05 12.6 °C 6.2 °C 1021.6 hPa WNW 30.6 km/h 30.6 km/h 65 % 0.0 mm 0.0 W/m2 CLR
03:10 12.6 °C 6.4 °C 1021.6 hPa NW 27.8 km/h 27.8 km/h 66 % 0.0 mm 0.0 W/m2 CLR
03:15 12.6 °C 6.2 °C 1021.6 hPa WNW 16.1 km/h 16.1 km/h 65 % 0.0 mm 0.0 W/m2 CLR
03:21 12.5 °C 6.1 °C 1021.6 hPa WNW 19.3 km/h 19.3 km/h 65 % 0.0 mm 0.0 W/m2 CLR
03:26 12.4 °C 6.2 °C 1021.6 hPa WNW 22.2 km/h 22.2 km/h 66 % 0.0 mm 0.0 W/m2 CLR
03:31 12.2 °C 6.1 °C 1021.2 hPa WNW 24.1 km/h 24.1 km/h 66 % 0.0 mm 0.0 W/m2 CLR
03:36 12.1 °C 5.9 °C 1021.2 hPa WNW 27.8 km/h 27.8 km/h 66 % 0.0 mm 0.0 W/m2 CLR
03:41 12.2 °C 6.0 °C 1020.9 hPa WNW 31.5 km/h 31.5 km/h 66 % 0.0 mm 0.0 W/m2 CLR
03:46 12.2 °C 6.0 °C 1020.9 hPa WNW 29.0 km/h 29.0 km/h 66 % 0.0 mm 0.0 W/m2 CLR
03:51 12.2 °C 6.1 °C 1020.9 hPa WNW 27.8 km/h 27.8 km/h 66 % 0.0 mm 0.0 W/m2 CLR
03:56 12.3 °C 5.9 °C 1020.9 hPa WNW 31.5 km/h 31.5 km/h 65 % 0.0 mm 0.0 W/m2 CLR
04:01 12.3 °C 5.9 °C 1020.9 hPa WNW 24.1 km/h 24.1 km/h 65 % 0.0 mm 0.0 W/m2 CLR
04:06 12.3 °C 5.9 °C 1020.9 hPa West 20.4 km/h 20.4 km/h 65 % 0.0 mm 0.0 W/m2 CLR
04:11 12.3 °C 5.9 °C 1020.9 hPa West 24.1 km/h 24.1 km/h 65 % 0.0 mm 0.0 W/m2 CLR
04:16 12.3 °C 5.9 °C 1020.9 hPa West 20.4 km/h 20.4 km/h 65 % 0.0 mm 0.0 W/m2 CLR
04:21 12.2 °C 5.8 °C 1020.9 hPa West 20.9 km/h 20.9 km/h 65 % 0.0 mm 0.0 W/m2 CLR
04:26 12.2 °C 5.8 °C 1020.9 hPa West 16.7 km/h 16.7 km/h 65 % 0.0 mm 0.0 W/m2 CLR
04:31 12.2 °C 5.8 °C 1021.2 hPa Calm     65 % 0.0 mm 0.0 W/m2 CLR
04:36 12.0 °C 5.8 °C 1021.2 hPa Calm     66 % 0.0 mm 0.0 W/m2 CLR
04:41 11.9 °C 5.7 °C 1021.2 hPa West 3.7 km/h 3.7 km/h 66 % 0.0 mm 0.0 W/m2 CLR
04:46 11.8 °C 5.8 °C 1021.2 hPa Calm     67 % 0.0 mm 0.0 W/m2 CLR
04:51 11.7 °C 5.7 °C 1020.9 hPa Calm     67 % 0.0 mm 0.0 W/m2 CLR
04:56 11.6 °C 5.7 °C 1020.9 hPa SW 1.9 km/h 1.9 km/h 67 % 0.0 mm 0.0 W/m2 CLR
05:01 11.6 °C 5.6 °C 1020.9 hPa Calm     67 % 0.0 mm 0.0 W/m2 CLR
05:06 11.3 °C 5.6 °C 1021.2 hPa Calm     68 % 0.0 mm 0.0 W/m2 CLR
05:11 11.2 °C 5.7 °C 1021.2 hPa Calm     69 % 0.0 mm 0.0 W/m2 CLR
05:16 11.1 °C 5.6 °C 1021.2 hPa Calm     69 % 0.0 mm 0.0 W/m2 CLR
05:21 10.9 °C 5.7 °C 1021.2 hPa Calm     70 % 0.0 mm 0.0 W/m2 CLR
05:26 10.8 °C 5.5 °C 1021.2 hPa Calm     70 % 0.0 mm 0.0 W/m2 CLR
05:31 10.8 °C 5.6 °C 1021.2 hPa Calm     70 % 0.0 mm 0.0 W/m2 CLR
05:36 10.9 °C 5.6 °C 1021.2 hPa Calm     70 % 0.0 mm 0.0 W/m2 CLR
05:41 10.9 °C 5.6 °C 1021.2 hPa Calm     70 % 0.0 mm 0.0 W/m2 CLR
05:46 10.9 °C 5.6 °C 1021.2 hPa Calm     70 % 0.0 mm 0.0 W/m2 CLR
05:51 10.8 °C 5.6 °C 1020.9 hPa Calm     70 % 0.0 mm 0.0 W/m2 CLR
05:56 10.8 °C 5.5 °C 1021.2 hPa WNW 3.7 km/h   70 % 0.0 mm 0.0 W/m2 CLR
05:57 10.8 °C 5.5 °C 1020.9 hPa Calm     70 % 0.0 mm 0.0 W/m2 CLR
06:02 10.7 °C 5.7 °C 1021.2 hPa WNW 3.2 km/h 3.2 km/h 71 % 0.0 mm 0.0 W/m2 CLR
06:07 10.7 °C 5.7 °C 1021.2 hPa NW 3.7 km/h 3.7 km/h 71 % 0.0 mm 0.0 W/m2 CLR
06:12 10.7 °C 5.8 °C 1020.9 hPa WNW 9.7 km/h 9.7 km/h 72 % 0.0 mm 0.0 W/m2 CLR
06:17 10.8 °C 5.9 °C 1020.9 hPa West 7.4 km/h 7.4 km/h 72 % 0.0 mm 0.0 W/m2 CLR
06:22 10.8 °C 5.8 °C 1020.9 hPa West 9.3 km/h 9.3 km/h 71 % 0.0 mm 0.0 W/m2 CLR
06:27 10.8 °C 5.8 °C 1020.9 hPa West 9.7 km/h 9.7 km/h 71 % 0.0 mm 0.0 W/m2 CLR
06:32 10.8 °C 6.0 °C 1020.9 hPa West 9.3 km/h 9.3 km/h 72 % 0.0 mm 0.0 W/m2 CLR
06:37 10.8 °C 6.0 °C 1020.9 hPa WNW 11.1 km/h 11.1 km/h 72 % 0.0 mm 0.0 W/m2 CLR
06:38 10.8 °C 6.0 °C 1020.9 hPa WNW 11.1 km/h 11.1 km/h 72 % 0.0 mm 0.0 W/m2 CLR
06:43 10.8 °C 6.0 °C 1020.9 hPa WNW 16.7 km/h 16.7 km/h 72 % 0.0 mm 0.0 W/m2 CLR
06:48 10.9 °C 6.1 °C 1020.9 hPa WNW 18.5 km/h 18.5 km/h 72 % 0.0 mm 0.0 W/m2 CLR
06:53 10.9 °C 6.1 °C 1020.9 hPa WNW 18.5 km/h 18.5 km/h 72 % 0.0 mm 0.0 W/m2 CLR
06:58 11.1 °C 6.2 °C 1020.9 hPa WNW 16.7 km/h 16.7 km/h 72 % 0.0 mm 0.0 W/m2 CLR
07:03 11.1 °C 6.3 °C 1020.9 hPa WNW 18.5 km/h 18.5 km/h 72 % 0.0 mm 0.0 W/m2 CLR
07:08 11.3 °C 6.3 °C 1020.9 hPa WNW 20.9 km/h 20.9 km/h 71 % 0.0 mm 0.0 W/m2 CLR
07:13 11.4 °C 6.4 °C 1020.9 hPa WNW 24.1 km/h 24.1 km/h 71 % 0.0 mm 0.0 W/m2 CLR
07:18 11.6 °C 6.5 °C 1020.9 hPa WNW 25.9 km/h 25.9 km/h 71 % 0.0 mm 0.0 W/m2 CLR
07:23 11.7 °C 6.6 °C 1020.9 hPa WNW 24.1 km/h 24.1 km/h 71 % 0.0 mm 0.0 W/m2 CLR
07:28 11.7 °C 6.6 °C 1020.9 hPa WNW 33.3 km/h 33.3 km/h 71 % 0.0 mm 0.0 W/m2 CLR
07:33 11.8 °C 6.7 °C 1020.9 hPa WNW 31.5 km/h 31.5 km/h 71 % 0.0 mm 0.0 W/m2 CLR
07:38 11.9 °C 6.8 °C 1020.9 hPa WNW 24.1 km/h 24.1 km/h 71 % 0.0 mm 0.0 W/m2 CLR
07:43 11.9 °C 6.8 °C 1021.2 hPa WNW 22.2 km/h 22.2 km/h 71 % 0.0 mm 0.0 W/m2 CLR
07:48 11.8 °C 6.9 °C 1021.2 hPa WNW 25.7 km/h 25.7 km/h 72 % 0.0 mm 0.0 W/m2 CLR
07:53 11.8 °C 6.9 °C 1021.2 hPa WNW 30.6 km/h 30.6 km/h 72 % 0.0 mm 0.0 W/m2 CLR
07:58 11.8 °C 6.9 °C 1021.2 hPa WNW 31.5 km/h 31.5 km/h 72 % 0.0 mm 0.0 W/m2 CLR
08:03 11.8 °C 7.1 °C 1021.2 hPa WNW 29.0 km/h 29.0 km/h 73 % 0.0 mm 0.0 W/m2 OVC
08:08 11.8 °C 7.1 °C 1021.2 hPa WNW 33.8 km/h 33.8 km/h 73 % 0.0 mm 0.0 W/m2 OVC
08:13 11.8 °C 7.1 °C 1021.2 hPa WNW 32.2 km/h 32.2 km/h 73 % 0.0 mm 7.0 W/m2 BKN
08:18 11.8 °C 7.1 °C 1021.2 hPa WNW 25.9 km/h 25.9 km/h 73 % 0.0 mm 14.0 W/m2 BKN
08:23 11.7 °C 7.1 °C 1021.2 hPa WNW 22.2 km/h 22.2 km/h 73 % 0.0 mm 14.0 W/m2 BKN
08:28 11.7 °C 7.1 °C 1021.2 hPa WNW 24.1 km/h 24.1 km/h 73 % 0.0 mm 14.0 W/m2 BKN
08:33 11.6 °C 7.1 °C 1021.2 hPa WNW 22.2 km/h 22.2 km/h 74 % 0.0 mm 16.0 W/m2 BKN
08:38 11.4 °C 6.9 °C 1021.2 hPa WNW 24.1 km/h 24.1 km/h 74 % 0.0 mm 16.0 W/m2 BKN
08:43 11.3 °C 7.0 °C 1021.2 hPa WNW 24.1 km/h 24.1 km/h 75 % 0.0 mm 16.0 W/m2 BKN
08:48 11.2 °C 7.2 °C 1021.2 hPa WNW 22.2 km/h 22.2 km/h 76 % 0.0 mm 16.0 W/m2 BKN
08:53 11.2 °C 7.2 °C 1020.9 hPa WNW 29.6 km/h 29.6 km/h 76 % 0.0 mm 16.0 W/m2 BKN
08:58 11.2 °C 7.2 °C 1020.9 hPa WNW 24.1 km/h 24.1 km/h 76 % 0.0 mm 18.0 W/m2 BKN
09:03 11.2 °C 7.1 °C 1020.9 hPa WNW 24.1 km/h 24.1 km/h 76 % 0.0 mm 19.0 W/m2 BKN
09:08 11.1 °C 7.1 °C 1021.2 hPa WNW 20.4 km/h 20.4 km/h 76 % 0.0 mm 21.0 W/m2 BKN
09:13 11.2 °C 7.2 °C 1021.2 hPa WNW 29.6 km/h 29.6 km/h 76 % 0.0 mm 23.0 W/m2 BKN
09:18 11.3 °C 7.3 °C 1021.2 hPa WNW 25.9 km/h 25.9 km/h 76 % 0.0 mm 25.0 W/m2 BKN
09:23 11.4 °C 7.3 °C 1020.9 hPa WNW 31.5 km/h 31.5 km/h 76 % 0.0 mm 26.0 W/m2 BKN
09:28 11.6 °C 7.5 °C 1020.9 hPa WNW 31.5 km/h 31.5 km/h 76 % 0.0 mm 30.0 W/m2 BKN
09:33 11.8 °C 7.7 °C 1021.2 hPa WNW 31.5 km/h 31.5 km/h 76 % 0.0 mm 33.0 W/m2 BKN
09:38 12.1 °C 7.8 °C 1021.2 hPa WNW 38.9 km/h 38.9 km/h 75 % 0.0 mm 199.0 W/m2 SCT
09:43 12.6 °C 8.1 °C 1021.2 hPa WNW 27.8 km/h 27.8 km/h 74 % 0.0 mm 229.0 W/m2 CLR
09:48 12.7 °C 8.0 °C 1020.9 hPa WNW 35.2 km/h 35.2 km/h 73 % 0.0 mm 76.0 W/m2 CLR
09:53 12.6 °C 8.1 °C 1020.9 hPa WNW 33.3 km/h 33.3 km/h 74 % 0.0 mm 58.0 W/m2 FEW
09:58 12.5 °C 8.0 °C 1021.2 hPa WNW 27.8 km/h 27.8 km/h 74 % 0.0 mm 63.0 W/m2 SCT
10:03 12.6 °C 8.1 °C 1021.2 hPa WNW 29.6 km/h 29.6 km/h 74 % 0.0 mm 258.0 W/m2 FEW
10:08 12.9 °C 8.4 °C 1021.2 hPa WNW 27.8 km/h 27.8 km/h 74 % 0.0 mm 144.0 W/m2 CLR
10:13 13.1 °C 8.4 °C 1021.2 hPa WNW 24.1 km/h 24.1 km/h 73 % 0.0 mm 95.0 W/m2 CLR
10:18 13.1 °C 8.3 °C 1021.2 hPa WNW 22.2 km/h 22.2 km/h 73 % 0.0 mm 163.0 W/m2 CLR
10:23 13.3 °C 8.6 °C 1021.2 hPa WNW 31.5 km/h 31.5 km/h 73 % 0.0 mm 271.0 W/m2 CLR
10:28 13.6 °C 8.7 °C 1021.2 hPa WNW 22.2 km/h 22.2 km/h 72 % 0.0 mm 348.0 W/m2 CLR
10:33 13.9 °C 8.7 °C 1021.2 hPa WNW 22.2 km/h 22.2 km/h 71 % 0.0 mm 316.0 W/m2 CLR
10:38 14.1 °C 8.9 °C 1020.9 hPa WNW 24.1 km/h 24.1 km/h 71 % 0.0 mm 302.0 W/m2 CLR
10:43 14.3 °C 8.7 °C 1020.9 hPa WNW 27.8 km/h 27.8 km/h 69 % 0.0 mm 329.0 W/m2 CLR
10:48 14.4 °C 8.8 °C 1020.9 hPa WNW 31.5 km/h 31.5 km/h 69 % 0.0 mm 292.0 W/m2 CLR
10:53 14.3 °C 8.5 °C 1020.5 hPa WNW 31.5 km/h 31.5 km/h 68 % 0.0 mm 299.0 W/m2 CLR
10:58 14.4 °C 8.8 °C 1020.5 hPa WNW 42.6 km/h 42.6 km/h 69 % 0.0 mm 271.0 W/m2 CLR
11:03 14.4 °C 8.8 °C 1020.5 hPa WNW 22.2 km/h 22.2 km/h 69 % 0.0 mm 297.0 W/m2 CLR
11:08 14.6 °C 8.7 °C 1020.5 hPa WNW 42.6 km/h 42.6 km/h 68 % 0.0 mm 408.0 W/m2 CLR
11:13 14.7 °C 8.9 °C 1020.5 hPa WNW 32.2 km/h 32.2 km/h 68 % 0.0 mm 404.0 W/m2 CLR
11:18 14.9 °C 9.2 °C 1020.2 hPa WNW 32.2 km/h 32.2 km/h 69 % 0.0 mm 408.0 W/m2 CLR
11:23 14.9 °C 9.1 °C 1020.2 hPa NW 46.7 km/h 46.7 km/h 68 % 0.0 mm 462.0 W/m2 CLR
11:28 15.1 °C 8.9 °C 1020.2 hPa NW 42.6 km/h 42.6 km/h 67 % 0.0 mm 457.0 W/m2 CLR
11:33 15.2 °C 8.8 °C 1020.2 hPa NW 50.0 km/h 50.0 km/h 66 % 0.0 mm 443.0 W/m2 CLR
11:43 15.3 °C 9.2 °C 1020.2 hPa NW 42.6 km/h 42.6 km/h 67 % 0.0 mm 278.0 W/m2 CLR
11:48 15.3 °C 9.0 °C 1020.2 hPa NW 42.6 km/h 42.6 km/h 66 % 0.0 mm 496.0 W/m2 CLR
11:53 15.5 °C 9.2 °C 1020.2 hPa NW 38.9 km/h 38.9 km/h 66 % 0.0 mm 329.0 W/m2 CLR
11:58 15.7 °C 9.3 °C 1020.2 hPa NW 50.0 km/h 50.0 km/h 66 % 0.0 mm 559.0 W/m2 CLR
12:03 15.8 °C 9.2 °C 1020.2 hPa NW 40.7 km/h 40.7 km/h 65 % 0.0 mm 570.0 W/m2 CLR
12:08 15.9 °C 9.3 °C 1020.2 hPa NW 42.6 km/h 42.6 km/h 65 % 0.0 mm 575.0 W/m2 CLR
12:13 15.9 °C 9.3 °C 1020.2 hPa WNW 42.6 km/h 42.6 km/h 65 % 0.0 mm 501.0 W/m2 CLR
12:18 15.8 °C 9.3 °C 1020.2 hPa NW 44.4 km/h 44.4 km/h 65 % 0.0 mm 513.0 W/m2 CLR
12:23 15.9 °C 9.3 °C 1020.2 hPa NW 46.3 km/h 46.3 km/h 65 % 0.0 mm 545.0 W/m2 CLR
12:28 15.9 °C 9.3 °C 1020.2 hPa NW 42.6 km/h 42.6 km/h 65 % 0.0 mm 545.0 W/m2 CLR
12:33 15.9 °C 9.3 °C 1020.2 hPa NW 44.4 km/h 44.4 km/h 65 % 0.0 mm 555.0 W/m2 CLR
12:38 16.0 °C 9.4 °C 1020.2 hPa NW 50.0 km/h 50.0 km/h 65 % 0.0 mm 557.0 W/m2 CLR
12:43 15.9 °C 9.6 °C 1020.2 hPa NW 40.7 km/h 40.7 km/h 66 % 0.0 mm 578.0 W/m2 CLR
12:49 16.1 °C 9.2 °C 1020.2 hPa NW 51.8 km/h 51.8 km/h 64 % 0.0 mm 615.0 W/m2 CLR
12:54 16.0 °C 9.2 °C 1020.2 hPa NW 46.3 km/h 46.3 km/h 64 % 0.0 mm 584.0 W/m2 CLR
12:59 16.1 °C 9.2 °C 1020.2 hPa NW 44.4 km/h 44.4 km/h 64 % 0.0 mm 554.0 W/m2 CLR
13:04 16.2 °C 9.2 °C 1020.2 hPa NW 46.3 km/h 46.3 km/h 63 % 0.0 mm 580.0 W/m2 CLR
13:09 16.2 °C 9.3 °C 1020.2 hPa NW 40.7 km/h 40.7 km/h 64 % 0.0 mm 587.0 W/m2 CLR
13:14 16.4 °C 9.4 °C 1020.2 hPa NW 46.3 km/h 46.3 km/h 63 % 0.0 mm 626.0 W/m2 CLR
13:19 16.2 °C 9.2 °C 1020.2 hPa NW 45.1 km/h 45.1 km/h 63 % 0.0 mm 494.0 W/m2 CLR
13:24 16.1 °C 9.2 °C 1019.9 hPa NW 38.9 km/h 38.9 km/h 64 % 0.0 mm 515.0 W/m2 CLR
13:29 16.1 °C 9.2 °C 1019.9 hPa NW 42.6 km/h 42.6 km/h 64 % 0.0 mm 568.0 W/m2 CLR
13:34 16.5 °C 9.7 °C 1019.9 hPa NW 31.5 km/h 31.5 km/h 64 % 0.0 mm 504.0 W/m2 CLR
13:39 16.4 °C 9.6 °C 1019.9 hPa NW 33.3 km/h 33.3 km/h 64 % 0.0 mm 585.0 W/m2 CLR
13:44 16.4 °C 9.6 °C 1019.5 hPa NW 38.9 km/h 38.9 km/h 64 % 0.0 mm 568.0 W/m2 CLR
13:49 16.4 °C 9.6 °C 1019.5 hPa NW 42.6 km/h 42.6 km/h 64 % 0.0 mm 575.0 W/m2 CLR
13:54 16.0 °C 8.9 °C 1019.5 hPa NW 35.2 km/h 35.2 km/h 63 % 0.0 mm 111.0 W/m2 CLR
13:59 16.0 °C 9.2 °C 1019.5 hPa NW 37.0 km/h 37.0 km/h 64 % 0.0 mm 111.0 W/m2 CLR
14:04 15.9 °C 9.1 °C 1019.5 hPa NW 31.5 km/h 31.5 km/h 64 % 0.0 mm 146.0 W/m2 CLR
14:09 15.7 °C 9.2 °C 1019.5 hPa NW 32.2 km/h 32.2 km/h 65 % 0.0 mm 220.0 W/m2 CLR
14:14 15.6 °C 9.1 °C 1019.2 hPa NW 30.6 km/h 30.6 km/h 65 % 0.0 mm 149.0 W/m2 CLR
14:19 15.4 °C 9.1 °C 1019.2 hPa NW 38.9 km/h 38.9 km/h 66 % 0.0 mm 165.0 W/m2 CLR
14:24 15.3 °C 9.0 °C 1019.2 hPa NNW 24.1 km/h 24.1 km/h 66 % 0.0 mm 192.0 W/m2 CLR
14:29 15.4 °C 9.3 °C 1019.2 hPa NNW 31.5 km/h 31.5 km/h 67 % 0.0 mm 234.0 W/m2 CLR
14:34 15.4 °C 9.1 °C 1019.2 hPa NNW 33.3 km/h 33.3 km/h 66 % 0.0 mm 209.0 W/m2 CLR
14:39 15.3 °C 9.0 °C 1018.8 hPa NW 22.5 km/h 23.3 km/h 66 % 0.0 mm 192.0 W/m2 CLR
14:44 15.3 °C 9.2 °C 1018.8 hPa NNW 20.4 km/h 20.4 km/h 67 % 0.0 mm 202.0 W/m2 CLR
14:49 15.3 °C 9.0 °C 1018.8 hPa NNW 27.8 km/h 27.8 km/h 66 % 0.0 mm 209.0 W/m2 CLR
14:55 15.3 °C 8.9 °C 1018.8 hPa NNW 31.5 km/h 31.5 km/h 66 % 0.0 mm 200.0 W/m2 CLR
15:00 15.2 °C 8.7 °C 1018.8 hPa NW 25.9 km/h 25.9 km/h 65 % 0.0 mm 197.0 W/m2 CLR
15:05 15.2 °C 8.8 °C 1018.8 hPa NNW 24.1 km/h 24.1 km/h 66 % 0.0 mm 200.0 W/m2 CLR
15:10 15.2 °C 8.8 °C 1018.5 hPa NNW 22.2 km/h 22.2 km/h 66 % 0.0 mm 185.0 W/m2 CLR
15:15 15.2 °C 9.1 °C 1018.8 hPa NW 22.2 km/h 22.2 km/h 67 % 0.0 mm 179.0 W/m2 CLR
15:20 15.1 °C 8.7 °C 1018.8 hPa NW 27.8 km/h 27.8 km/h 66 % 0.0 mm 186.0 W/m2 CLR
15:25 14.9 °C 8.9 °C 1018.8 hPa NNW 24.1 km/h 24.1 km/h 67 % 0.0 mm 183.0 W/m2 CLR
15:30 14.9 °C 8.9 °C 1018.8 hPa NW 24.1 km/h 24.1 km/h 67 % 0.0 mm 171.0 W/m2 CLR
15:35 14.9 °C 8.8 °C 1018.5 hPa NW 17.7 km/h 17.7 km/h 67 % 0.0 mm 162.0 W/m2 CLR
15:40 14.9 °C 8.9 °C 1018.5 hPa NW 13.0 km/h 13.0 km/h 67 % 0.0 mm 151.0 W/m2 CLR
15:45 14.9 °C 8.6 °C 1018.8 hPa NW 29.6 km/h 29.6 km/h 66 % 0.0 mm 137.0 W/m2 CLR
15:50 14.8 °C 8.7 °C 1018.8 hPa NW 24.1 km/h 24.1 km/h 67 % 0.0 mm 116.0 W/m2 CLR
15:55 14.7 °C 8.9 °C 1018.8 hPa NW 20.4 km/h 20.4 km/h 68 % 0.0 mm 116.0 W/m2 CLR
16:00 14.6 °C 8.7 °C 1018.8 hPa NW 25.9 km/h 25.9 km/h 68 % 0.0 mm 107.0 W/m2 CLR
16:05 14.4 °C 8.6 °C 1018.8 hPa NW 27.8 km/h 27.8 km/h 68 % 0.0 mm 95.0 W/m2 CLR
16:10 14.3 °C 8.7 °C 1018.8 hPa NW 27.8 km/h 27.8 km/h 69 % 0.0 mm 93.0 W/m2 CLR
16:15 14.2 °C 8.6 °C 1018.8 hPa NW 18.5 km/h 18.5 km/h 69 % 0.0 mm 97.0 W/m2 CLR
16:20 14.2 °C 8.8 °C 1018.8 hPa NW 20.4 km/h 20.4 km/h 70 % 0.0 mm 93.0 W/m2 CLR
16:25 14.1 °C 8.7 °C 1018.5 hPa NW 18.5 km/h 18.5 km/h 70 % 0.0 mm 88.0 W/m2 CLR
16:30 14.1 °C 8.7 °C 1018.8 hPa NW 24.1 km/h 24.1 km/h 70 % 0.0 mm 74.0 W/m2 CLR
16:35 14.1 °C 8.7 °C 1018.5 hPa NW 20.4 km/h 20.4 km/h 70 % 0.0 mm 62.0 W/m2 FEW
16:40 14.1 °C 8.7 °C 1018.5 hPa NW 14.8 km/h 14.8 km/h 70 % 0.0 mm 58.0 W/m2 FEW
16:45 13.9 °C 8.6 °C 1018.5 hPa NW 18.5 km/h 18.5 km/h 70 % 0.0 mm 56.0 W/m2 SCT
16:50 13.9 °C 8.5 °C 1018.5 hPa NW 18.5 km/h 18.5 km/h 70 % 0.0 mm 63.0 W/m2 SCT
16:55 13.8 °C 8.4 °C 1018.5 hPa NW 18.5 km/h 18.5 km/h 70 % 0.0 mm 54.0 W/m2 SCT
17:00 13.7 °C 8.3 °C 1018.8 hPa NW 18.5 km/h 18.5 km/h 70 % 0.0 mm 53.0 W/m2 SCT
17:05 13.6 °C 8.4 °C 1018.5 hPa NW 16.7 km/h 16.7 km/h 71 % 0.0 mm 44.0 W/m2 SCT
17:10 13.6 °C 8.4 °C 1018.8 hPa NW 22.2 km/h 22.2 km/h 71 % 0.0 mm 33.0 W/m2 BKN
17:15 13.4 °C 8.3 °C 1018.8 hPa NW 22.2 km/h 22.2 km/h 71 % 0.0 mm 28.0 W/m2 BKN
17:20 13.4 °C 8.2 °C 1018.8 hPa NW 24.1 km/h 24.1 km/h 71 % 0.0 mm 23.0 W/m2 BKN
17:25 13.3 °C 8.1 °C 1019.2 hPa NW 22.2 km/h 22.2 km/h 71 % 0.0 mm 23.0 W/m2 BKN
17:30 13.2 °C 8.2 °C 1018.8 hPa NW 17.7 km/h 17.7 km/h 72 % 0.0 mm 19.0 W/m2 BKN
17:35 13.0 °C 8.4 °C 1019.2 hPa NW 20.9 km/h 20.9 km/h 74 % 0.0 mm 19.0 W/m2 BKN
17:39 12.8 °C 8.5 °C 1019.2 hPa NW 25.7 km/h 25.7 km/h 75 % 0.0 mm 19.0 W/m2 BKN
17:44 12.7 °C 8.6 °C 1019.5 hPa NW 18.5 km/h 18.5 km/h 76 % 0.0 mm 16.0 W/m2 BKN
17:49 12.4 °C 8.5 °C 1019.5 hPa NW 27.8 km/h 27.8 km/h 77 % 0.3 mm 16.0 W/m2 RA
17:54 12.3 °C 8.4 °C 1019.5 hPa NW 24.1 km/h 24.1 km/h 77 % 0.3 mm 16.0 W/m2 BKN
17:59 12.3 °C 8.6 °C 1019.5 hPa NW 18.5 km/h 18.5 km/h 78 % 0.3 mm 16.0 W/m2 BKN
18:04 12.1 °C 8.6 °C 1019.5 hPa NW 27.8 km/h 27.8 km/h 79 % 0.3 mm 12.0 W/m2 BKN
18:09 12.1 °C 8.5 °C 1019.5 hPa NW 22.2 km/h 22.2 km/h 79 % 0.3 mm 0.0 W/m2 OVC
18:14 11.9 °C 8.6 °C 1019.9 hPa NW 20.4 km/h 20.4 km/h 80 % 0.3 mm 0.0 W/m2 OVC
18:19 11.7 °C 8.6 °C 1019.9 hPa NW 16.7 km/h 16.7 km/h 81 % 0.3 mm 0.0 W/m2 OVC
18:24 11.5 °C 8.7 °C 1020.2 hPa WNW 13.0 km/h 13.0 km/h 83 % 0.5 mm 0.0 W/m2 RA
18:29 11.3 °C 8.7 °C 1020.2 hPa NW 31.5 km/h 31.5 km/h 84 % 0.8 mm 0.0 W/m2 RA
18:34 11.1 °C 8.8 °C 1020.2 hPa NW 24.1 km/h 24.1 km/h 86 % 1.3 mm 0.0 W/m2 RA
18:39 10.9 °C 8.6 °C 1020.2 hPa WNW 27.8 km/h 27.8 km/h 86 % 1.5 mm 0.0 W/m2 RA
18:44 10.8 °C 8.7 °C 1020.2 hPa WNW 18.5 km/h 18.5 km/h 87 % 1.5 mm 0.0 W/m2 RA
18:49 10.7 °C 8.6 °C 1020.2 hPa WNW 18.5 km/h 18.5 km/h 87 % 1.5 mm 0.0 W/m2 CLR
18:54 10.6 °C 8.6 °C 1019.9 hPa West 19.3 km/h 19.3 km/h 87 % 1.5 mm 0.0 W/m2 CLR
18:59 10.6 °C 8.4 °C 1019.9 hPa West 22.5 km/h 22.5 km/h 86 % 1.5 mm 0.0 W/m2 CLR
19:04 10.6 °C 8.4 °C 1020.2 hPa West 20.4 km/h 20.4 km/h 86 % 1.5 mm 0.0 W/m2 RA
19:09 10.4 °C 8.2 °C 1020.2 hPa West 24.1 km/h 24.1 km/h 86 % 1.5 mm 0.0 W/m2
19:14 10.3 °C 8.3 °C 1020.2 hPa West 25.9 km/h 25.9 km/h 87 % 2.0 mm 0.0 W/m2 RA
19:19 10.3 °C 8.2 °C 1020.2 hPa West 18.5 km/h 18.5 km/h 87 % 2.0 mm 0.0 W/m2 RA
19:24 10.2 °C 8.1 °C 1020.2 hPa West 20.4 km/h 20.4 km/h 87 % 1.8 mm 0.0 W/m2
19:29 10.1 °C 8.2 °C 1020.2 hPa West 17.7 km/h 17.7 km/h 88 % 1.5 mm 0.0 W/m2 CLR
19:34 10.1 °C 8.2 °C 1020.2 hPa WSW 18.5 km/h 18.5 km/h 88 % 1.3 mm 0.0 W/m2 CLR
19:39 10.1 °C 8.2 °C 1020.2 hPa WSW 16.7 km/h 16.7 km/h 88 % 1.0 mm 0.0 W/m2 CLR
19:44 10.1 °C 8.2 °C 1020.2 hPa West 14.8 km/h 14.8 km/h 88 % 0.8 mm 0.0 W/m2 CLR
19:49 10.0 °C 8.1 °C 1020.2 hPa WSW 14.8 km/h 14.8 km/h 88 % 0.8 mm 0.0 W/m2 CLR
19:54 10.0 °C 8.1 °C 1020.2 hPa WSW 16.7 km/h 16.7 km/h 88 % 0.8 mm 0.0 W/m2 CLR
19:59 9.9 °C 8.1 °C 1020.2 hPa West 18.5 km/h 18.5 km/h 88 % 0.8 mm 0.0 W/m2 CLR
20:04 10.0 °C 8.1 °C 1020.2 hPa West 18.5 km/h 18.5 km/h 88 % 0.5 mm 0.0 W/m2 CLR
20:09 10.0 °C 8.1 °C 1020.2 hPa West 18.5 km/h 18.5 km/h 88 % 0.5 mm 0.0 W/m2 CLR
20:14 10.1 °C 8.0 °C 1020.2 hPa West 18.5 km/h 18.5 km/h 87 % 0.3 mm 0.0 W/m2 CLR
20:19 10.1 °C 8.1 °C 1020.2 hPa West 22.2 km/h 22.2 km/h 87 % 0.0 mm 0.0 W/m2 CLR
20:24 10.2 °C 7.9 °C 1019.9 hPa West 24.1 km/h 24.1 km/h 86 % 0.0 mm 0.0 W/m2 CLR
20:29 10.2 °C 8.0 °C 1019.9 hPa West 25.9 km/h 25.9 km/h 86 % 0.0 mm 0.0 W/m2 CLR
20:34 10.2 °C 8.2 °C 1019.5 hPa West 25.9 km/h 25.9 km/h 87 % 0.0 mm 0.0 W/m2 CLR
20:39 10.2 °C 8.0 °C 1019.5 hPa West 31.5 km/h 31.5 km/h 86 % 0.0 mm 0.0 W/m2 CLR
20:44 10.2 °C 8.2 °C 1019.5 hPa WNW 27.8 km/h 27.8 km/h 87 % 0.0 mm 0.0 W/m2 CLR
20:49 10.2 °C 8.1 °C 1019.5 hPa WNW 22.2 km/h 22.2 km/h 87 % 0.0 mm 0.0 W/m2 CLR
20:54 10.1 °C 8.1 °C 1019.5 hPa WNW 30.6 km/h 30.6 km/h 87 % 0.0 mm 0.0 W/m2 CLR
20:59 10.2 °C 7.9 °C 1019.2 hPa WNW 20.9 km/h 20.9 km/h 86 % 0.0 mm 0.0 W/m2 CLR
21:04 10.1 °C 7.9 °C 1019.5 hPa WNW 24.1 km/h 24.1 km/h 86 % 0.0 mm 0.0 W/m2 CLR
21:05 10.2 °C 7.9 °C 1019.5 hPa WNW 31.5 km/h 31.5 km/h 86 % 0.0 mm 0.0 W/m2 CLR
21:10 10.2 °C 7.9 °C 1019.5 hPa WNW 29.6 km/h 29.6 km/h 86 % 0.0 mm 0.0 W/m2 CLR
21:15 10.1 °C 7.8 °C 1019.5 hPa WNW 40.7 km/h 40.7 km/h 86 % 0.0 mm 0.0 W/m2 CLR
21:20 10.0 °C 7.6 °C 1019.5 hPa WNW 24.1 km/h 24.1 km/h 85 % 0.0 mm 0.0 W/m2 CLR
21:25 9.9 °C 7.4 °C 1019.5 hPa WNW 30.6 km/h 30.6 km/h 84 % 0.0 mm 0.0 W/m2 CLR
21:30 9.9 °C 7.4 °C 1019.5 hPa WNW 31.5 km/h 31.5 km/h 84 % 0.0 mm 0.0 W/m2 CLR
21:35 9.8 °C 7.1 °C 1019.5 hPa WNW 22.2 km/h 22.2 km/h 83 % 0.0 mm 0.0 W/m2 CLR
21:40 9.7 °C 6.9 °C 1019.5 hPa WNW 22.2 km/h 22.2 km/h 83 % 0.0 mm 0.0 W/m2 CLR
21:45 9.6 °C 6.9 °C 1019.5 hPa WNW 24.1 km/h 24.1 km/h 83 % 0.0 mm 0.0 W/m2 CLR
21:50 9.6 °C 6.7 °C 1019.9 hPa NW 33.3 km/h 33.3 km/h 82 % 0.0 mm 0.0 W/m2 CLR
21:55 9.6 °C 6.7 °C 1019.5 hPa NW 27.8 km/h 27.8 km/h 82 % 0.0 mm 0.0 W/m2 CLR
22:01 9.5 °C 6.4 °C 1019.9 hPa WNW 33.8 km/h 33.8 km/h 81 % 0.0 mm 0.0 W/m2 CLR
22:06 9.4 °C 6.3 °C 1019.5 hPa NW 33.3 km/h 33.3 km/h 81 % 0.0 mm 0.0 W/m2 CLR
22:11 9.5 °C 6.4 °C 1019.9 hPa NW 37.0 km/h 37.0 km/h 81 % 0.0 mm 0.0 W/m2 CLR
22:16 9.4 °C 6.3 °C 1019.9 hPa NW 31.5 km/h 31.5 km/h 81 % 0.0 mm 0.0 W/m2 CLR
22:21 9.4 °C 6.3 °C 1019.9 hPa NW 31.5 km/h 31.5 km/h 81 % 0.0 mm 0.0 W/m2 CLR
22:26 9.4 °C 6.1 °C 1019.9 hPa WNW 33.3 km/h 33.3 km/h 80 % 0.0 mm 0.0 W/m2 CLR
22:31 9.4 °C 6.2 °C 1020.2 hPa WNW 27.8 km/h 27.8 km/h 80 % 0.0 mm 0.0 W/m2 CLR
22:36 9.4 °C 6.2 °C 1019.9 hPa NW 31.5 km/h 31.5 km/h 80 % 0.0 mm 0.0 W/m2 CLR
22:41 9.4 °C 6.2 °C 1020.2 hPa NW 42.6 km/h 42.6 km/h 80 % 0.0 mm 0.0 W/m2 CLR
22:46 9.3 °C 6.2 °C 1020.2 hPa WNW 31.5 km/h 31.5 km/h 81 % 0.0 mm 0.0 W/m2 CLR
22:51 9.1 °C 6.2 °C 1020.2 hPa WNW 33.3 km/h 33.3 km/h 82 % 0.0 mm 0.0 W/m2 CLR
22:56 9.1 °C 6.2 °C 1020.2 hPa WNW 27.8 km/h 27.8 km/h 82 % 0.0 mm 0.0 W/m2 CLR
23:01 9.0 °C 6.1 °C 1020.2 hPa WNW 31.5 km/h 31.5 km/h 82 % 0.0 mm 0.0 W/m2 CLR
23:06 9.1 °C 5.9 °C 1020.2 hPa WNW 37.0 km/h 37.0 km/h 81 % 0.0 mm 0.0 W/m2 CLR
23:11 8.9 °C 6.1 °C 1020.5 hPa WNW 31.5 km/h 31.5 km/h 82 % 0.0 mm 0.0 W/m2 CLR
23:16 8.8 °C 6.1 °C 1020.9 hPa WNW 33.3 km/h 33.3 km/h 83 % 0.0 mm 0.0 W/m2 CLR
23:21 8.7 °C 6.0 °C 1020.5 hPa WNW 31.5 km/h 31.5 km/h 83 % 0.0 mm 0.0 W/m2 CLR
23:26 8.7 °C 6.0 °C 1020.5 hPa WNW 31.5 km/h 31.5 km/h 83 % 0.0 mm 0.0 W/m2 CLR
23:31 8.7 °C 6.0 °C 1020.5 hPa WNW 37.0 km/h 37.0 km/h 83 % 0.0 mm 0.0 W/m2 CLR
23:36 8.6 °C 6.1 °C 1020.5 hPa WNW 33.3 km/h 33.3 km/h 84 % 0.0 mm 0.0 W/m2 CLR
23:41 8.6 °C 5.8 °C 1020.5 hPa WNW 31.5 km/h 31.5 km/h 83 % 0.0 mm 0.0 W/m2 CLR
23:46 8.5 °C 5.8 °C 1020.5 hPa WNW 51.8 km/h 51.8 km/h 83 % 0.0 mm 0.0 W/m2 CLR
23:51 8.4 °C 5.5 °C 1020.5 hPa WNW 42.6 km/h 42.6 km/h 82 % 0.0 mm 0.0 W/m2 CLR
23:56 8.3 °C 5.4 °C 1020.5 hPa NW 29.6 km/h 29.6 km/h 82 % 0.0 mm 0.0 W/m2 CLR
Lo Temps de Massalio
Compliments of Weather Underground - 1.25 mb